createdAt,value
2024-04-06T00:01:59.281Z,83.9
2024-04-06T00:07:02.840Z,83.6
2024-04-06T00:12:07.352Z,83.8
2024-04-06T00:17:11.868Z,84
2024-04-06T00:22:15.431Z,84.4
2024-04-06T00:27:19.993Z,84.8
2024-04-06T00:42:32.660Z,84.1
2024-04-06T00:47:37.151Z,84.2
2024-04-06T00:52:41.631Z,83.6
2024-04-06T00:57:45.206Z,83.3
2024-04-06T01:02:49.829Z,83.2
2024-04-06T01:07:54.260Z,84.2
2024-04-06T01:12:57.839Z,84.2
2024-04-06T01:18:02.363Z,84.4
2024-04-06T01:23:06.904Z,85.6
2024-04-06T01:28:10.428Z,86
2024-04-06T01:33:14.987Z,86.5
2024-04-06T01:38:18.505Z,86.5
2024-04-06T01:43:23.096Z,86.4
2024-04-06T01:48:27.630Z,86.3
2024-04-06T01:53:31.164Z,86.5
2024-04-06T01:58:35.664Z,86.4
2024-04-06T02:03:40.211Z,86.3
2024-04-06T02:08:43.784Z,86
2024-04-06T02:13:48.317Z,85.8
2024-04-06T02:18:52.851Z,85.5
2024-04-06T02:23:57.380Z,85.2
2024-04-06T02:29:00.905Z,84.5
2024-04-06T02:34:05.431Z,84.3
2024-04-06T02:39:09.997Z,83.9
2024-04-06T02:44:13.571Z,84
2024-04-06T02:49:18.090Z,84.3
2024-04-06T02:54:22.597Z,83.9
2024-04-06T02:59:26.178Z,84
2024-04-06T03:04:30.673Z,84.3
2024-04-06T03:09:35.214Z,84.5
2024-04-06T03:14:38.762Z,84.9
2024-04-06T03:19:43.296Z,84.1
2024-04-06T03:24:47.822Z,83.7
2024-04-06T03:29:52.372Z,83.2
2024-04-06T03:34:55.937Z,82.7
2024-04-06T03:40:00.441Z,82.8
2024-04-06T03:55:13.103Z,82.4
2024-04-06T04:00:17.613Z,81.9
2024-04-06T04:15:30.212Z,82
2024-04-06T04:20:33.787Z,82
2024-04-06T04:25:38.274Z,82.2
2024-04-06T04:30:42.829Z,82.6
2024-04-06T04:35:47.371Z,82.2
2024-04-06T04:40:50.883Z,82.5
2024-04-06T04:45:55.425Z,82.3
2024-04-06T04:56:03.553Z,82.5
2024-04-06T05:01:08.073Z,82.6
2024-04-06T05:06:12.601Z,82.6
2024-04-06T05:11:16.403Z,82.5
2024-04-06T05:16:20.670Z,82.5
2024-04-06T05:21:25.212Z,82.4
2024-04-06T05:26:28.745Z,82.2
2024-04-06T05:36:37.852Z,81.1
2024-04-06T05:41:42.376Z,81.3
2024-04-06T05:46:45.912Z,81.1
2024-04-06T06:01:58.541Z,80.8
2024-04-06T06:07:02.071Z,80.7
2024-04-06T06:12:06.605Z,80.4
2024-04-06T06:17:11.141Z,80
2024-04-06T06:22:15.703Z,79.8
2024-04-06T06:27:19.228Z,79.8
2024-04-06T06:32:23.736Z,78.6
2024-04-06T06:42:33.192Z,77.2
2024-04-06T06:47:36.418Z,77
2024-04-06T06:52:40.910Z,76.2
2024-04-06T06:57:44.505Z,75.7
2024-04-06T07:02:49.075Z,74.8
2024-04-06T07:07:53.522Z,74.6
2024-04-06T07:12:57.069Z,73.5
2024-04-06T07:18:01.608Z,72.6
2024-04-06T07:23:06.163Z,71.5
2024-04-06T07:28:10.721Z,70.3
2024-04-06T07:33:14.215Z,70.3
2024-04-06T07:38:20.661Z,68.5
2024-04-06T07:43:23.307Z,66.8
2024-04-06T07:48:26.878Z,66.5
2024-04-06T07:53:31.372Z,65.9
2024-04-06T07:58:35.882Z,65.5
2024-04-06T08:03:39.440Z,65.1
2024-04-06T08:13:48.509Z,63.9
2024-04-06T08:18:52.069Z,62.6
2024-04-06T08:23:56.654Z,61.6
2024-04-06T08:29:01.163Z,61
2024-04-06T08:34:05.714Z,60.4
2024-04-06T08:39:09.268Z,60.4
2024-04-06T08:44:13.793Z,59.6
2024-04-06T08:49:18.295Z,59.3
2024-04-06T08:54:21.852Z,58.6
2024-04-06T08:59:26.416Z,57.4
2024-04-06T09:04:30.923Z,58.1
2024-04-06T09:09:34.462Z,58
2024-04-06T09:14:38.998Z,58.8
2024-04-06T09:19:43.568Z,57.8
2024-04-06T09:24:47.124Z,56.8
2024-04-06T09:29:51.634Z,57.6
2024-04-06T09:34:56.158Z,57.4
2024-04-06T09:40:00.734Z,57.1
2024-04-06T09:45:04.282Z,56.9
2024-04-06T09:50:08.804Z,57.6
2024-04-06T09:55:13.378Z,55.8
2024-04-06T10:00:16.910Z,55.8
2024-04-06T10:05:20.435Z,55
2024-04-06T10:10:24.976Z,54.4
2024-04-06T10:15:29.550Z,55.2
2024-04-06T10:20:34.052Z,54.1
2024-04-06T10:25:37.616Z,53.5
2024-04-06T10:35:46.691Z,53.2
2024-04-06T10:40:50.223Z,53.2
2024-04-06T10:45:54.793Z,51.5
2024-04-06T10:56:02.840Z,47.7
2024-04-06T11:01:07.701Z,47.3
2024-04-06T11:06:11.923Z,47.5
2024-04-06T11:11:15.500Z,47.2
2024-04-06T11:16:20.049Z,45.9
2024-04-06T11:21:24.561Z,46.8
2024-04-06T11:26:29.314Z,47.5
2024-04-06T11:31:32.640Z,48.3
2024-04-06T11:36:37.170Z,47.5
2024-04-06T11:41:41.708Z,47.8
2024-04-06T11:46:45.282Z,47.3
2024-04-06T11:51:49.840Z,46.6
2024-04-06T11:56:54.352Z,46.8
2024-04-06T12:01:57.895Z,46.8
2024-04-06T12:07:02.447Z,45.8
2024-04-06T12:12:06.956Z,44.8
2024-04-06T12:17:10.518Z,45.4
2024-04-06T12:22:15.129Z,45
2024-04-06T12:27:19.609Z,45.1
2024-04-06T12:32:24.162Z,45.1
2024-04-06T12:37:27.690Z,45.7
2024-04-06T12:42:32.202Z,45.1
2024-04-06T12:47:36.775Z,44.5
2024-04-06T12:52:40.311Z,44.3
2024-04-06T12:57:44.842Z,44.1
2024-04-06T13:02:49.365Z,44.5
2024-04-06T13:07:55.009Z,44
2024-04-06T13:12:57.506Z,43.9
2024-04-06T13:18:02.014Z,43.5
2024-04-06T13:23:05.568Z,42.9
2024-04-06T13:28:10.107Z,43.1
2024-04-06T13:33:14.640Z,42.6
2024-04-06T13:38:19.160Z,42.9
2024-04-06T13:48:27.257Z,42.5
2024-04-06T13:53:31.768Z,43.2
2024-04-06T13:58:35.317Z,42.8
2024-04-06T14:03:39.889Z,42.7
2024-04-06T14:13:47.984Z,42.2
2024-04-06T14:18:52.494Z,42.3
2024-04-06T14:23:56.047Z,41.9
2024-04-06T14:29:00.608Z,42.6
2024-04-06T14:34:05.172Z,42.4
2024-04-06T14:39:08.708Z,42.9
2024-04-06T14:49:17.756Z,41.6
2024-04-06T14:54:21.294Z,41.7
2024-04-06T14:59:25.868Z,41.2
2024-04-06T15:04:30.422Z,41.8
2024-04-06T15:09:33.920Z,42.3
2024-04-06T15:14:38.470Z,42.5
2024-04-06T15:19:42.987Z,42.5
2024-04-06T15:24:47.518Z,42.7
2024-04-06T15:29:51.130Z,43.2
2024-04-06T15:34:55.640Z,43.6
2024-04-06T15:40:00.213Z,43.7
2024-04-06T15:45:03.689Z,43.2
2024-04-06T16:00:16.359Z,43.3
2024-04-06T16:05:20.854Z,44.3
2024-04-06T16:10:25.408Z,44.6
2024-04-06T16:15:28.928Z,44.2
2024-04-06T16:20:33.481Z,43.9
2024-04-06T16:25:37.988Z,44.5
2024-04-06T16:30:42.577Z,44.5
2024-04-06T16:35:46.111Z,44.6
2024-04-06T16:40:50.626Z,45.1
2024-04-06T16:45:55.158Z,44.7
2024-04-06T16:50:58.752Z,45.2
2024-04-06T16:56:03.404Z,45.4
2024-04-06T17:01:07.791Z,45.1
2024-04-06T17:06:11.519Z,45.2
2024-04-06T17:11:15.916Z,45.3
2024-04-06T17:16:20.435Z,44.5
2024-04-06T17:21:23.984Z,44.8
2024-04-06T17:26:28.529Z,45.1
2024-04-06T17:31:33.109Z,44.8
2024-04-06T17:36:37.592Z,45.4
2024-04-06T17:41:41.152Z,45.3
2024-04-06T17:46:45.672Z,45.6
2024-04-06T17:51:50.202Z,46.3
2024-04-06T17:56:53.740Z,46.1
2024-04-06T18:07:02.833Z,47
2024-04-06T18:12:06.387Z,47
2024-04-06T18:17:11.177Z,46.8
2024-04-06T18:22:15.431Z,47
2024-04-06T18:27:18.997Z,47.1
2024-04-06T18:32:23.561Z,46.4
2024-04-06T18:37:27.143Z,46.5
2024-04-06T18:42:32.140Z,46.1
2024-04-06T18:47:36.174Z,46.6
2024-04-06T18:52:39.690Z,46.8
2024-04-06T18:57:44.223Z,47.4
2024-04-06T19:02:48.751Z,48.2
2024-04-06T19:12:56.850Z,50.2
2024-04-06T19:18:03.244Z,50.7
2024-04-06T19:23:05.941Z,51.9
2024-04-06T19:28:09.502Z,52.7
2024-04-06T19:33:14.058Z,52.8
2024-04-06T19:38:18.563Z,53.6
2024-04-06T19:43:22.084Z,53.7
2024-04-06T19:48:26.660Z,54
2024-04-06T19:53:31.144Z,54.5
2024-04-06T19:58:34.724Z,54.8
2024-04-06T20:03:39.264Z,55.1
2024-04-06T20:08:43.770Z,54.8
2024-04-06T20:13:47.434Z,55
2024-04-06T20:18:51.850Z,55.1
2024-04-06T20:23:56.392Z,54.6
2024-04-06T20:29:00.928Z,54.5
2024-04-06T20:34:04.484Z,54.4
2024-04-06T20:39:09.024Z,53.7
2024-04-06T20:44:13.584Z,53.1
2024-04-06T20:49:17.101Z,52.3
2024-04-06T20:54:23.969Z,51.9
2024-04-06T20:59:26.187Z,51.1
2024-04-06T21:04:29.746Z,49.8
2024-04-06T21:09:34.254Z,49.8
2024-04-06T21:19:42.333Z,48.9
2024-04-06T21:24:46.874Z,48.8
2024-04-06T21:29:53.210Z,48.5
2024-04-06T21:34:55.931Z,48
2024-04-06T21:39:59.464Z,48
2024-04-06T21:50:08.566Z,47.8
2024-04-06T21:55:12.075Z,47.7
2024-04-06T22:00:16.637Z,47.5
2024-04-06T22:05:21.153Z,47.3
2024-04-06T22:10:24.710Z,47
2024-04-06T22:15:29.255Z,46.8
2024-04-06T22:20:33.788Z,47.3
2024-04-06T22:25:37.364Z,47.6
2024-04-06T22:30:41.887Z,47.7
2024-04-06T22:35:46.401Z,47.7
2024-04-06T22:40:50.933Z,48.2
2024-04-06T22:45:54.509Z,48.4
2024-04-06T22:50:58.060Z,48.3
2024-04-06T22:56:02.598Z,47.6
2024-04-06T23:01:07.120Z,46.8
2024-04-06T23:06:10.667Z,47.5
2024-04-06T23:11:15.180Z,47.2
2024-04-06T23:16:19.712Z,47.8
2024-04-06T23:21:24.282Z,46.7
2024-04-06T23:26:27.855Z,45.5
2024-04-06T23:31:32.340Z,46.5
2024-04-06T23:36:36.901Z,45.1
2024-04-06T23:41:40.422Z,45.3
2024-04-06T23:51:49.556Z,44
